Date TemperatureHighC TemperatureAvgC TemperatureLowC DewpointHighC DewpointAvgC DewpointLowC HumidityHigh HumidityAvg HumidityLow PressureMaxhPa PressureMinhPa WindSpeedMaxKMH WindSpeedAvgKMH GustSpeedMaxKMH PrecipitationSumCM
2012-12-31 17.7 6.2 1.0 9.5 0.9 -3.2 98 75 31 1009 1004 7 2 7 0.00
2013-1-1 13.4 7.3 1.1 7.9 4.5 -2.1 90 83 64 1005 1000 13 4 13 0.00
2013-1-2 11.7 9.7 8.8 9.8 7.9 3.7 98 89 67 1010 998 17 5 17 0.51
2013-1-3 19.7 10.7 3.9 5.8 4.0 3.1 98 66 34 1017 1010 26 4 26 0.00
2013-1-4 17.6 8.1 1.6 12.8 5.8 1.3 98 87 51 1017 1011 15 2 15 0.00
2013-1-5 14.5 10.2 4.9 10.4 8.1 4.4 98 87 70 1011 1004 9 2 9 0.00
2013-1-6 17.4 8.3 1.8 12.5 6.6 1.5 98 90 59 1007 1002 9 2 9 0.00
2013-1-7 20.2 9.3 3.1 11.9 6.2 2.8 98 84 42 1007 1002 11 2 11 0.00
2013-1-8 12.6 7.7 1.5 11.4 6.9 1.2 98 95 85 1010 1006 6 1 6 0.00
2013-1-9 14.9 10.9 9.0 10.3 9.1 8.4 98 88 70 1007 1002 9 2 9 0.00
2013-1-10 16.3 10.5 8.0 8.6 7.9 6.3 96 85 57 1003 994 13 2 13 0.00
2013-1-11 9.4 6.1 2.7 9.1 5.7 2.4 98 98 95 997 990 11 3 11 0.63
2013-1-12 15.3 7.8 2.9 7.7 5.1 2.6 98 85 51 999 996 11 3 11 0.10
2013-1-13 12.7 8.5 5.8 12.4 7.7 5.1 98 95 84 999 987 14 4 14 1.17
2013-1-14 14.0 8.4 3.0 12.1 5.8 1.9 98 85 50 994 987 15 3 15 0.53
2013-1-15 13.5 6.6 2.3 8.8 2.7 -1.9 98 80 36 994 982 15 3 15 0.41
2013-1-16 10.3 4.9 2.3 8.3 3.8 1.8 98 93 72 982 976 13 3 14 1.27
2013-1-17 11.0 3.8 0.2 5.1 -0.1 -4.3 98 79 38 981 976 16 4 16 0.00
2013-1-18 12.4 4.8 0.1 2.0 -3.9 -6.5 98 57 29 986 980 21 4 21 0.10
2013-1-19 10.8 5.0 -0.1 10.4 2.1 -4.4 98 82 56 986 978 23 5 23 0.10
2013-1-20 14.3 12.2 8.4 13.3 11.2 8.1 98 94 72 980 976 19 4 19 0.63
2013-1-21 15.4 9.4 5.9 9.6 5.8 0.6 98 81 41 983 977 21 3 21 0.63
2013-1-22 13.1 8.4 4.3 7.1 2.3 -0.8 98 67 47 991 982 32 7 32 0.43
2013-1-23 13.6 7.3 4.7 8.0 4.6 2.7 98 83 61 991 984 16 5 16 0.10
2013-1-24 13.8 7.9 5.2 6.2 2.0 -1.2 93 69 39 985 980 20 3 20 0.00
2013-1-25 13.7 6.3 -0.5 0.4 -2.2 -5.1 75 56 35 992 982 23 5 23 0.00
2013-1-26 13.9 3.7 -2.4 -0.6 -4.7 -6.9 88 58 27 997 989 14 3 14 0.00
2013-1-27 14.4 4.0 -3.6 4.4 -1.8 -6.1 95 70 31 998 996 11 3 11 0.00
2013-1-28 8.8 7.1 3.7 8.5 4.7 -0.2 98 85 66 1003 992 17 4 17 0.63
2013-1-29 17.5 6.9 0.7 10.7 2.3 -0.3 98 76 34 1007 1003 12 2 12 0.00
2013-1-30 18.2 8.0 2.0 14.0 4.7 1.7 98 83 40 1007 1004 9 2 10 0.00
2013-1-31 18.7 10.3 4.7 14.6 8.2 4.2 98 88 56 1008 1002 14 2 14 0.00
2013-2-1 15.6 10.8 5.9 12.0 9.4 5.6 98 92 69 1004 987 14 4 14 0.00
2013-2-2 13.9 10.5 5.9 12.5 9.3 0.6 98 93 68 987 971 28 5 31 0.74
2013-2-3 14.0 6.4 1.9 2.3 -1.3 -5.9 87 60 35 1001 975 28 5 28 0.00
2013-2-4 16.3 6.5 -1.5 4.4 -1.9 -6.6 82 58 30 1003 1000 10 3 10 0.00
2013-2-5 17.0 9.6 5.4 9.3 6.2 4.3 98 80 52 1003 990 11 3 11 0.00
2013-2-6 15.6 9.6 5.1 7.4 0.8 -4.4 98 58 26 990 980 28 6 28 0.00
2013-2-7 11.3 6.1 3.4 3.2 -0.1 -4.3 93 66 46 989 980 26 6 26 0.00
2013-2-8 14.4 5.3 -0.8 0.9 -6.1 -9.6 79 47 25 993 987 16 4 16 0.00
2013-2-9 12.6 3.7 -2.5 -2.6 -7.4 -8.9 67 47 26 996 992 15 3 15 0.00
2013-2-10 11.2 2.8 -3.0 -4.7 -7.8 -9.8 66 48 27 997 994 13 2 13 0.00
2013-2-11 9.1 4.9 1.6 8.7 3.3 -7.2 98 90 47 995 979 28 6 28 0.74
2013-2-12 15.7 5.4 0.4 4.8 1.8 -0.9 98 80 37 989 982 12 3 13 0.00
2013-2-13 13.2 5.1 -0.7 7.7 -0.3 -3.7 98 72 37 996 988 15 3 15 0.10
2013-2-14 18.0 7.3 1.7 0.9 -1.1 -2.8 81 58 28 1000 996 19 3 19 0.00
2013-2-15 16.4 6.6 0.8 5.5 2.1 -2.3 97 76 38 1000 996 10 2 10 0.10
2013-2-16 17.0 6.6 -0.7 3.2 -1.3 -3.9 98 63 27 1002 998 19 4 19 0.00
2013-2-17 16.8 7.7 1.5 3.3 -2.3 -4.1 77 52 27 1002 998 15 3 15 0.00
2013-2-18 16.0 6.3 -0.3 0.5 -2.7 -6.0 78 55 28 1002 997 22 3 22 0.00
2013-2-19 14.5 4.8 -2.1 3.2 -3.4 -5.6 88 60 27 1002 996 19 3 19 0.00
2013-2-20 13.8 6.9 0.0 5.6 1.4 -1.7 96 71 41 998 994 13 3 13 0.00
2013-2-21 14.2 8.9 6.1 8.0 4.7 2.9 98 75 50 995 986 13 4 13 0.00
2013-2-22 9.3 5.5 1.9 6.4 4.1 0.4 98 91 77 987 980 12 3 12 0.41
2013-2-23 9.2 4.4 0.3 8.9 3.6 -0.3 98 95 80 985 972 28 5 28 1.37
2013-2-24 10.9 5.3 1.7 4.5 1.8 -2.3 98 80 41 993 982 20 4 23 1.17
2013-2-25 9.4 4.4 1.2 5.9 1.8 -1.3 98 84 51 1001 992 15 4 15 0.84
2013-2-26 17.1 6.8 0.3 3.6 -0.4 -3.8 98 65 27 1004 1000 16 3 16 0.00
2013-2-27 18.2 6.6 -0.5 5.3 -0.6 -3.6 93 65 27 1007 1004 13 2 13 0.00
2013-2-28 18.9 8.2 0.7 3.6 0.3 -1.6 90 62 27 1007 1003 13 3 13 0.00
2013-3-1 12.9 8.4 1.6 5.8 0.6 -3.2 89 61 36 1004 995 21 4 21 0.23
2013-3-2 16.9 10.4 2.0 6.3 0.4 -3.7 84 52 29 1001 993 36 7 36 0.00
2013-3-3 19.3 7.8 -1.1 2.8 -1.6 -5.1 91 58 20 1002 998 13 3 13 0.00
2013-3-4 19.6 8.9 0.5 7.6 3.0 -0.2 98 72 31 1006 1000 15 3 15 0.00
2013-3-5 12.4 9.2 6.8 8.4 6.2 2.4 98 82 52 1005 998 21 5 21 0.30
2013-3-6 12.5 11.2 9.5 12.2 8.1 2.3 98 83 54 998 986 19 6 19 0.74
2013-3-7 19.4 13.9 11.9 15.8 12.5 11.2 98 92 67 991 988 13 4 13 0.10
2013-3-8 14.6 12.9 11.1 14.3 12.6 10.7 98 98 96 992 986 16 4 16 1.27
2013-3-9 18.5 12.8 7.3 13.1 10.7 7.0 98 88 60 991 986 17 3 17 1.02
2013-3-10 21.9 12.7 8.1 11.7 9.3 6.3 98 83 39 989 984 17 3 17 0.10
2013-3-11 19.7 11.9 7.4 12.2 8.2 5.1 98 80 48 986 982 16 4 21 0.00
2013-3-12 21.7 11.1 7.5 9.3 7.0 3.1 98 79 32 986 980 17 4 17 0.10
2013-3-13 15.0 8.7 6.0 9.8 6.6 3.9 98 87 65 984 975 15 4 16 0.74
2013-3-14 17.4 9.5 3.3 5.8 1.4 -2.3 98 60 37 978 972 17 4 17 0.00
2013-3-15 15.3 6.9 1.0 2.2 -2.7 -5.8 88 54 27 997 978 22 4 22 0.10
2013-3-16 15.9 6.2 -0.8 -0.1 -4.8 -8.8 86 50 24 1003 997 20 3 20 0.00
2013-3-17 11.9 7.8 2.8 9.1 3.1 -6.7 98 75 44 1002 987 19 6 19 0.63
2013-3-18 15.1 11.7 9.4 13.1 8.3 0.1 98 82 48 987 976 32 9 32 0.76
2013-3-19 18.4 12.1 6.3 4.1 -0.4 -3.9 78 44 24 992 983 39 10 39 0.00
2013-3-20 12.6 9.6 6.3 10.6 8.4 2.3 98 93 74 992 986 21 4 21 1.37
2013-3-21 21.3 12.0 5.9 12.3 4.1 -2.4 98 67 22 999 991 17 3 17 0.00
2013-3-22 21.7 11.4 4.0 9.8 4.4 2.3 98 68 33 998 994 16 3 16 0.00
2013-3-23 20.7 12.3 5.6 9.8 7.4 3.1 98 75 35 997 992 16 4 16 0.00
2013-3-24 19.6 13.8 9.7 9.5 5.2 0.5 93 59 34 993 980 22 4 22 0.00
2013-3-25 16.0 11.4 8.6 7.7 4.0 -0.2 84 61 37 983 976 33 5 33 0.20
2013-3-26 19.8 10.8 5.5 9.6 4.7 2.4 93 68 37 986 981 17 4 17 0.00
2013-3-27 20.7 11.7 5.1 9.3 5.1 2.3 95 68 32 993 986 15 4 15 0.00
2013-3-28 18.4 13.3 9.8 12.4 9.8 5.8 97 81 45 995 992 13 4 13 0.00
2013-3-29 21.7 14.8 12.6 14.3 11.7 9.0 98 83 51 994 990 14 3 14 0.00
2013-3-30 14.7 12.6 9.2 13.4 12.1 8.9 98 97 83 991 978 22 5 22 0.89
2013-3-31 21.5 13.1 8.2 11.5 6.4 1.2 98 69 33 987 981 20 3 21 0.00
2013-4-1 19.5 11.8 6.1 9.7 5.6 -0.6 97 70 28 989 981 20 4 20 0.20
2013-4-2 22.7 11.6 9.4 13.3 9.9 5.7 98 91 38 987 978 21 4 21 2.67
2013-4-3 20.5 12.4 7.3 9.2 6.5 2.6 98 73 34 992 986 19 3 19 0.00
2013-4-4 17.7 11.6 4.9 10.2 6.3 4.1 98 73 46 992 982 17 4 17 0.00
2013-4-5 16.3 11.7 7.8 11.5 8.7 4.6 98 84 52 992 978 28 5 28 1.27
2013-4-6 22.8 13.4 7.0 13.0 7.8 3.7 98 73 31 994 991 19 3 19 0.00
2013-4-7 25.4 15.8 9.7 8.7 3.6 0.3 81 47 22 995 990 17 4 17 0.00
2013-4-8 21.4 12.5 5.1 8.8 3.3 -0.2 82 56 31 995 991 17 3 17 0.00
2013-4-9 21.7 14.4 6.0 12.3 5.9 -0.8 98 63 23 995 992 18 4 18 0.00
2013-4-10 23.4 15.7 11.2 14.0 6.5 -0.9 98 61 24 1000 994 20 4 20 0.00
2013-4-11 25.1 14.3 6.5 11.9 7.9 3.4 92 68 32 1001 998 16 3 16 0.00
2013-4-12 23.3 15.9 12.2 13.2 11.8 9.4 97 79 46 1001 995 19 4 19 0.00
2013-4-13 25.0 16.9 10.0 17.3 7.4 -0.3 98 62 22 1010 1000 19 3 19 0.00
2013-4-14 28.0 17.1 7.6 10.0 3.9 1.3 84 48 21 1012 1009 15 3 15 0.00
2013-4-15 29.3 17.4 8.0 13.2 5.6 -0.4 93 53 19 1010 1004 15 3 15 0.00
2013-4-16 28.6 17.2 7.2 10.1 3.9 0.1 81 48 19 1007 1004 17 3 17 0.00
2013-4-17 28.4 18.3 9.5 11.9 7.0 3.4 82 52 25 1007 1005 11 2 11 0.00
2013-4-18 30.2 19.0 10.1 16.0 6.9 1.7 96 53 19 1007 1002 18 3 18 0.00
2013-4-19 32.0 17.4 8.0 8.8 3.8 1.3 73 46 15 1003 996 15 2 15 0.00
2013-4-20 22.9 15.8 10.2 14.6 8.3 2.8 97 66 31 1001 995 21 5 21 0.00
2013-4-21 21.2 12.9 7.4 8.9 4.5 1.4 86 60 30 1001 997 14 3 14 0.00
2013-4-22 20.8 13.3 7.8 9.9 4.8 1.2 82 59 31 1000 995 20 3 20 0.00
2013-4-23 23.3 14.6 6.8 10.9 5.7 1.7 94 61 28 1009 1000 13 3 13 0.00
2013-4-24 30.2 17.8 8.2 11.2 6.1 2.6 90 54 19 1012 1009 13 3 13 0.00
2013-4-25 30.1 19.4 12.3 10.5 8.4 5.1 81 52 23 1011 1005 12 2 12 0.00
2013-4-26 27.9 19.2 13.9 13.8 9.1 2.0 86 56 25 1006 998 16 3 16 0.00
2013-4-27 21.3 16.2 14.7 15.6 13.2 10.2 97 83 54 999 990 20 4 20 0.23
2013-4-28 26.2 18.4 14.6 15.7 11.9 7.6 95 70 35 1000 993 13 3 13 0.00
2013-4-29 30.7 22.1 16.2 9.9 7.3 3.3 65 41 22 1003 998 20 4 20 0.00
2013-4-30 29.2 21.2 15.7 11.3 7.9 4.6 72 45 22 1003 1000 17 4 17 0.00
2013-5-1 28.9 20.5 15.0 11.3 7.1 1.2 67 44 21 1003 1000 15 3 15 0.00
2013-5-2 27.3 18.3 13.6 17.4 12.7 9.6 96 72 40 1002 998 11 2 11 0.20
2013-5-3 29.9 19.6 11.5 19.6 12.1 7.6 98 67 33 1001 998 17 3 17 0.00
2013-5-4 29.8 19.7 9.9 11.2 7.5 3.7 87 52 21 1002 998 15 3 15 0.00
2013-5-5 26.1 17.1 12.5 16.5 11.9 9.2 95 75 38 1002 998 15 2 15 0.23
2013-5-6 23.6 15.5 10.9 16.8 13.4 10.6 98 89 52 1001 998 15 2 15 0.94
2013-5-7 25.0 18.2 11.8 19.2 12.2 7.9 98 72 37 1002 999 19 3 19 0.00
2013-5-8 27.7 19.4 12.0 17.8 11.0 7.1 98 64 29 1001 998 17 3 17 0.00
2013-5-9 30.6 20.8 11.6 18.6 10.6 6.7 98 59 26 1002 998 13 3 13 0.00
2013-5-10 27.3 18.7 14.5 17.0 13.2 10.2 94 72 40 1001 998 13 3 13 0.00
2013-5-11 28.8 19.9 14.7 18.5 11.7 5.9 98 65 29 999 996 15 3 15 0.00
2013-5-12 26.0 18.3 11.9 16.1 9.6 3.9 98 62 28 999 996 20 3 20 0.00
2013-5-13 29.9 19.6 10.2 14.9 6.6 2.8 97 49 19 1002 998 19 3 19 0.00
2013-5-14 29.4 18.9 8.3 10.8 5.3 0.2 84 48 19 1001 996 17 3 17 0.00
2013-5-15 23.6 16.7 12.0 14.6 10.8 6.7 98 71 41 996 988 16 4 16 0.00
2013-5-16 25.1 17.6 13.8 18.2 14.7 10.9 98 85 44 989 982 22 6 22 0.71
2013-5-17 24.9 17.8 14.5 15.8 11.3 3.7 98 70 35 997 984 15 4 15 0.84
2013-5-18 26.3 18.1 12.4 16.4 11.8 6.7 98 71 31 999 994 15 4 15 0.00
2013-5-19 25.0 17.7 12.5 13.2 8.2 1.8 96 59 26 1001 994 21 4 21 0.23
2013-5-20 25.6 16.3 10.3 14.3 8.6 3.5 94 64 27 1004 1000 17 3 17 1.04
2013-5-21 22.4 15.4 10.9 14.3 10.4 7.6 98 74 46 1003 995 9 2 9 0.00
2013-5-22 27.7 18.4 8.3 13.8 5.1 -0.2 97 50 20 996 983 17 4 17 0.00
2013-5-23 26.5 17.8 12.5 13.7 6.9 0.9 77 50 27 987 983 16 4 16 0.00
2013-5-24 21.4 15.4 11.2 11.0 2.6 -3.1 88 46 23 994 986 34 7 34 0.00
2013-5-25 18.0 11.7 7.4 10.9 5.0 -0.9 98 66 29 994 990 30 4 30 2.03
2013-5-26 23.6 14.8 5.6 14.2 5.8 0.0 98 62 23 999 992 22 4 22 0.20
2013-5-27 25.4 16.7 8.4 11.7 7.2 2.3 94 59 24 1000 997 17 4 17 0.00
2013-5-28 23.3 15.5 11.6 14.8 10.5 6.2 98 75 39 998 990 9 2 10 0.76
2013-5-29 23.8 16.6 10.2 15.3 7.8 2.6 98 62 29 993 988 19 3 19 0.10
2013-5-30 22.9 13.8 7.8 11.8 7.4 0.7 97 70 28 993 988 17 3 17 0.53
2013-5-31 25.7 17.4 10.5 13.8 8.3 1.8 95 61 23 991 988 22 3 22 0.00
2013-6-1 26.9 17.9 11.0 13.6 8.7 5.4 86 59 30 994 988 17 3 17 0.00
2013-6-2 26.9 19.1 10.1 13.9 9.3 6.9 95 58 31 999 993 17 4 17 0.00
2013-6-3 25.0 18.7 13.1 18.1 12.7 7.5 98 72 34 1001 998 24 3 24 0.10
2013-6-4 28.3 20.2 12.5 16.8 11.3 6.6 98 62 30 1001 998 17 3 17 0.00
2013-6-5 29.8 20.2 12.4 17.9 9.8 4.8 97 57 28 1003 1000 13 3 14 0.00
2013-6-6 29.0 20.6 11.0 14.4 9.6 5.7 95 56 25 1004 1002 19 3 19 0.00
2013-6-7 32.4 22.4 12.7 17.1 10.2 6.2 97 53 22 1003 1000 22 3 22 0.00
2013-6-8 32.0 22.1 12.3 16.4 9.8 5.8 95 51 21 1002 998 17 3 17 0.00
2013-6-9 24.4 17.9 14.7 16.7 12.8 7.1 95 73 38 1001 995 14 3 14 0.20
2013-6-10 27.7 19.1 11.9 16.7 11.0 5.8 98 65 29 998 995 17 3 17 0.13
2013-6-11 31.3 20.1 11.3 16.2 11.6 7.1 98 65 24 1001 997 20 3 20 0.00
2013-6-12 32.2 23.0 12.6 17.1 12.1 9.2 98 57 28 1004 1000 15 3 15 0.00
2013-6-13 34.7 25.6 14.8 17.9 8.8 3.8 92 42 18 1005 1002 17 3 17 0.00
2013-6-14 35.1 24.9 14.1 15.9 10.1 6.0 91 46 18 1003 1001 16 3 16 0.00
2013-6-15 34.6 25.9 15.8 17.2 10.0 5.3 86 43 18 1004 1002 16 3 16 0.00
2013-6-16 34.3 25.7 16.3 16.5 12.1 8.1 82 47 21 1003 1002 11 3 11 0.00
2013-6-17 35.9 26.5 16.9 18.3 11.7 5.7 87 47 18 1004 1001 13 3 13 0.00
2013-6-18 36.2 27.0 17.1 18.4 11.4 6.2 84 44 20 1002 1000 14 3 14 0.00
2013-6-19 38.1 28.1 17.3 17.5 10.7 6.3 82 40 16 1002 1000 14 3 14 0.00
2013-6-20 36.1 26.4 17.4 15.4 11.7 7.0 78 45 18 1002 1000 17 4 18 0.00
2013-6-21 34.9 24.8 17.7 19.0 13.2 8.1 91 54 25 1003 1000 13 3 13 0.00
2013-6-22 32.4 23.7 14.8 16.1 10.9 5.6 81 49 22 1003 1001 13 2 13 0.00
2013-6-23 33.7 24.6 16.5 17.1 11.7 4.7 92 51 18 1003 998 19 4 19 0.00
2013-6-24 31.3 21.8 15.1 14.5 10.3 6.2 83 52 24 1001 996 28 4 28 0.00
2013-6-25 32.1 23.3 12.5 14.3 9.7 4.6 90 48 20 1002 999 21 4 21 0.00
2013-7-1 33.1 24.7 13.3 12.6 6.3 1.9 80 36 17 1004 1002 14 4 18 0.00
2013-7-2 33.5 23.8 12.9 9.8 5.1 3.1 64 34 17 1004 1001 15 3 15 0.00
2013-7-3 34.0 23.3 14.3 17.4 10.4 4.4 77 50 17 1003 1000 13 3 13 0.00
2013-7-4 33.6 25.4 19.0 17.2 11.3 5.6 82 46 22 1003 1000 16 3 16 0.00
2013-7-5 39.1 27.8 16.3 15.6 10.0 5.1 78 40 15 1006 1003 20 3 20 0.00
2013-7-6 38.4 28.5 18.9 12.8 8.9 6.1 56 33 16 1006 1002 17 4 17 0.00
2013-7-7 36.0 26.2 19.4 13.3 10.2 8.2 58 39 19 1006 1003 19 4 19 0.00
2013-7-9 27.3 22.4 20.0 18.7 16.9 13.3 83 72 42 1002 1000 14 2 14 0.53
2013-7-10 34.3 25.4 17.4 20.5 16.4 11.6 97 62 31 1002 997 19 2 19 0.00
2013-7-11 35.5 27.9 18.7 21.8 13.8 8.9 93 48 21 1000 997 20 4 20 0.00
2013-7-12 35.5 26.6 16.5 17.5 13.0 8.2 84 49 21 1002 999 19 4 19 0.00
2013-7-13 36.7 26.8 18.0 17.8 14.1 8.3 85 51 21 1004 1000 17 4 17 0.00
2013-7-14 37.4 27.1 19.6 20.7 15.3 11.7 88 54 24 1003 1000 21 3 21 0.00
2013-7-15 38.5 27.9 18.4 16.4 11.2 6.2 78 42 15 1004 1001 18 2 18 0.00
2013-7-16 37.4 27.4 17.2 15.3 11.5 6.5 78 42 18 1005 1002 17 3 17 0.00
2013-7-17 40.4 28.4 18.0 14.7 10.3 5.4 67 38 16 1005 1002 17 3 17 0.00
2013-7-18 35.9 27.2 19.0 17.2 12.5 5.6 78 45 18 1004 1002 17 3 17 0.00
2013-7-19 35.2 24.7 19.0 20.5 14.6 9.9 80 56 25 1004 1000 15 3 15 0.76
2013-7-20 35.3 24.9 17.9 21.8 16.5 12.1 97 64 25 1002 999 13 2 13 1.17
2013-7-21 38.0 27.3 17.8 19.1 13.4 6.3 89 50 16 1002 1000 17 3 17 0.00
2013-7-22 39.6 28.2 18.9 18.2 12.4 6.1 83 45 15 1002 998 15 3 15 0.20
2013-7-23 31.6 21.1 18.2 18.7 15.7 12.1 83 73 32 1000 998 6 2 6 0.00
2013-7-29 33.1 27.3 22.3 24.7 18.2 14.0 90 59 40 1004 1000 15 3 21 0.94
2013-7-30 37.6 27.9 20.7 20.8 12.5 6.2 87 44 16 1004 1000 19 3 19 0.00
2013-7-31 37.0 28.2 17.8 11.8 7.6 4.6 65 31 16 1002 1000 22 5 22 0.00
2013-8-1 40.0 29.6 20.9 9.6 6.9 4.9 42 26 14 1002 999 19 5 19 0.00
2013-8-2 39.6 29.3 18.8 12.8 7.9 6.1 57 29 15 1003 1000 15 4 15 0.00
2013-8-3 39.4 29.1 18.7 15.1 10.1 5.4 68 36 15 1004 1002 17 3 17 0.00
2013-8-4 41.8 28.9 18.2 12.3 8.2 3.5 63 33 12 1005 1002 15 3 15 0.00
2013-8-5 42.4 29.4 18.6 12.7 8.9 5.1 55 32 14 1003 1000 14 2 14 0.00
2013-8-6 42.3 29.6 18.8 11.1 8.2 3.7 50 30 11 1002 998 13 3 13 0.00
2013-8-7 41.9 30.0 20.4 13.6 7.1 1.6 58 28 11 999 997 15 4 15 0.00
2013-8-8 38.6 30.4 25.6 17.7 8.0 1.3 44 26 16 1001 996 17 4 17 0.00
2013-8-9 35.7 26.7 19.1 15.8 11.6 6.4 76 43 17 1002 996 20 4 20 0.00
2013-8-10 39.3 28.6 20.3 20.3 13.2 5.4 87 47 15 1000 996 19 3 19 0.00
2013-8-11 39.2 28.1 19.0 14.6 9.4 5.9 66 36 15 1001 998 21 4 21 0.00
2013-8-12 38.7 28.6 18.1 13.9 8.2 4.7 64 32 15 1002 999 20 3 20 0.00
2013-8-13 34.7 26.1 18.1 19.6 11.9 5.8 76 45 18 1001 998 21 4 21 0.00
2013-8-14 36.0 26.5 19.6 22.2 16.8 13.1 96 59 29 1001 998 24 4 24 0.00
2013-8-15 23.2 22.2 21.7 13.6 13.0 12.3 58 56 52 1001 1000 10 1 10 0.00
2013-8-16 22.2 22.2 22.2 13.0 13.0 13.0 56 56 56 1000 1000 0 0 0 0.00
2013-8-17 22.2 22.2 22.2 13.0 13.0 13.0 56 56 56 1000 1000 0 0 0 0.00
2013-8-18 22.2 22.2 22.2 13.0 13.0 13.0 56 56 56 1000 1000 0 0 0 0.00
2013-8-19 22.2 22.2 22.2 13.0 13.0 13.0 56 56 56 1000 1000 0 0 0 0.00
2013-8-20 22.2 22.2 22.2 13.0 13.0 13.0 56 56 56 1000 1000 0 0 0 0.00
2013-8-21 22.2 22.2 22.2 13.0 13.0 13.0 56 56 56 1000 1000 0 0 0 0.00
2013-8-22 22.2 22.2 22.2 13.0 13.0 13.0 56 56 56 1000 1000 0 0 0 0.00
2013-8-23 22.2 22.2 22.2 13.0 13.0 13.0 56 56 56 1000 1000 0 0 0 0.00
2013-8-24 22.2 22.2 22.2 13.0 13.0 13.0 56 56 56 1000 1000 0 0 0 0.00
2013-8-25 22.2 22.2 22.2 13.0 13.0 13.0 56 56 56 1000 1000 0 0 0 0.00
2013-8-26 22.2 22.2 22.2 13.0 13.0 13.0 56 56 56 1000 1000 0 0 0 0.00
2013-8-27 32.8 24.5 20.2 15.8 12.1 5.1 74 49 21 1000 994 15 2 15 0.00
2013-8-28 32.1 23.3 16.5 16.2 12.4 6.4 92 56 22 1001 996 22 3 22 0.00
2013-8-29 34.0 23.2 14.8 14.5 11.7 5.8 79 53 19 1003 1000 13 3 13 0.00
2013-8-30 36.7 25.0 16.9 14.7 9.4 3.8 85 45 16 1003 1000 17 3 17 0.00
2013-8-31 36.9 26.2 17.6 10.7 4.4 1.1 53 28 13 1004 1000 19 3 19 0.00
2013-9-1 37.1 26.1 17.1 7.1 3.6 0.7 45 25 13 1004 1000 24 3 24 0.00
2013-9-2 35.6 25.3 16.5 9.7 6.3 3.5 49 33 14 1007 1002 19 3 19 0.00
2013-9-3 38.1 26.3 16.0 11.7 7.0 2.7 67 36 12 1007 1004 15 3 15 0.00
2013-9-4 37.5 25.3 16.7 12.7 8.2 4.7 56 38 16 1008 1004 13 3 16 0.00
2013-9-5 37.1 25.5 17.4 16.2 8.8 4.4 74 40 16 1005 998 16 3 16 0.00
2013-9-6 37.4 25.4 16.8 16.2 12.7 7.9 77 50 17 1001 997 19 3 19 0.00
2013-9-7 34.4 24.9 17.8 19.8 15.2 11.5 89 60 26 1005 1000 13 3 13 0.00
2013-9-8 31.4 23.9 19.0 21.8 18.9 15.9 97 76 42 1007 1004 14 3 14 0.00
2013-9-9 34.1 25.0 19.9 23.6 14.6 5.5 98 61 18 1006 1002 17 4 17 0.74
2013-9-10 32.4 23.0 18.2 16.9 13.9 6.3 83 60 20 1004 998 15 4 15 0.00
2013-9-11 32.1 22.2 15.6 17.4 11.6 6.6 89 57 22 999 997 19 4 19 0.00
2013-9-12 28.4 20.3 15.4 16.6 10.8 5.7 90 58 27 1001 997 20 4 20 0.13
2013-9-13 32.1 20.9 13.5 17.7 10.8 4.8 97 60 22 1005 1000 18 3 18 0.00
2013-9-14 28.8 19.8 12.5 16.5 12.1 8.5 98 67 29 1005 1002 21 4 21 0.00
2013-9-15 24.8 19.9 17.1 18.6 15.8 13.2 91 78 53 1003 994 17 3 17 0.08
2013-9-16 30.0 20.3 15.1 19.6 13.6 8.2 98 70 28 995 990 19 3 19 0.13
2013-9-17 28.2 19.6 15.3 16.5 10.7 6.5 98 62 30 994 986 30 4 30 0.00
2013-9-18 29.4 19.9 12.3 13.9 10.2 2.1 95 60 20 994 990 13 3 13 0.00
2013-9-19 33.5 22.4 16.5 16.1 11.0 5.3 86 54 20 995 989 13 3 13 0.00
2013-9-20 30.4 20.9 14.3 15.6 12.2 9.7 89 61 31 1002 994 13 2 13 0.00
2013-9-21 32.7 21.1 13.0 18.1 10.9 4.7 98 61 19 1007 1002 17 3 17 0.00
2013-9-22 32.6 22.9 15.8 14.2 6.2 1.4 80 39 17 1009 1006 19 4 19 0.00
2013-9-23 33.6 21.8 12.8 10.1 5.6 1.8 66 39 14 1007 1002 19 3 19 0.00
2013-9-24 30.0 19.5 11.6 15.1 10.9 7.6 91 63 25 1004 1001 13 3 13 0.00
2013-9-25 28.4 19.4 13.8 17.5 14.2 11.0 98 76 36 1002 1000 20 3 20 0.00
2013-9-26 30.6 20.6 14.9 19.6 14.9 10.4 98 76 31 1002 1000 13 3 13 0.00
2013-9-27 30.7 20.8 14.5 18.2 14.9 10.8 96 74 31 1002 999 14 2 14 0.00
2013-9-28 30.6 21.0 14.5 19.8 16.4 13.5 98 79 37 1001 998 17 3 18 0.00
2013-9-29 25.4 20.3 17.3 22.6 19.4 15.7 98 94 71 998 990 15 4 16 1.37
2013-9-30 27.6 19.5 16.1 21.7 17.2 12.6 98 88 44 991 987 22 2 22 0.94
2013-10-1 29.7 19.1 14.7 16.4 14.6 9.9 98 79 33 996 990 13 2 13 0.00
2013-10-2 29.5 20.4 15.4 19.7 12.1 7.2 98 65 30 1004 994 15 3 15 0.00
2013-10-3 28.6 19.9 14.9 16.1 7.1 0.6 81 46 22 1009 1003 17 5 17 0.00
2013-10-4 26.0 20.3 16.4 14.9 9.1 6.4 77 50 33 1009 1006 11 3 11 0.00
2013-10-5 21.2 18.4 16.2 18.8 17.1 14.4 98 92 78 1008 1001 21 4 21 9.80
2013-10-6 27.3 18.8 14.5 20.9 16.8 14.2 98 89 51 1004 1001 13 1 13 1.14
2013-10-7 23.4 15.1 13.5 20.4 14.6 13.2 98 97 73 1005 1002 9 1 9 1.17
2013-10-8 25.5 17.2 13.8 16.9 15.1 11.2 98 89 43 1006 1004 13 2 13 0.51
2013-10-9 25.9 17.2 12.5 18.5 13.9 11.1 98 83 44 1005 1002 14 2 14 0.13
2013-10-10 24.7 18.1 13.2 17.9 14.4 9.8 98 82 43 1002 992 13 3 13 0.00
2013-10-11 26.9 17.9 13.5 15.4 9.8 4.9 93 63 27 1001 992 10 2 10 0.00
2013-10-12 23.9 15.9 11.2 17.5 12.1 7.4 98 81 42 1007 999 9 2 9 0.94
2013-10-13 24.7 16.1 10.8 16.8 12.1 9.6 98 81 41 1007 1005 9 2 9 0.00
2013-10-14 24.7 17.1 12.8 17.4 14.1 10.9 98 85 43 1007 1004 11 1 11 0.00
2013-10-15 26.4 18.8 15.3 19.6 16.4 14.6 98 87 52 1006 998 11 2 11 0.00
2013-10-16 26.1 18.6 13.0 18.3 15.2 11.9 98 83 44 999 993 22 2 22 0.10
2013-10-17 28.0 17.6 11.2 16.7 12.9 9.9 98 78 37 1002 998 11 2 11 0.00
2013-10-18 26.6 18.4 12.7 17.9 14.7 12.4 98 82 45 1005 1001 11 2 11 0.00
2013-10-19 26.5 18.4 15.1 18.3 14.9 10.8 98 83 41 1010 1004 12 2 12 0.00
2013-10-20 22.7 19.3 15.8 18.4 16.4 15.0 98 85 68 1010 1008 14 4 14 0.00
2013-10-21 22.1 20.0 17.3 21.2 19.1 15.9 98 95 81 1010 1006 20 4 20 0.00
2013-10-22 25.9 20.4 18.5 19.1 17.4 12.7 98 85 49 1010 1006 15 4 15 0.00
2013-10-23 23.3 20.3 18.6 19.1 17.9 16.8 96 86 70 1007 1004 17 4 17 0.00
2013-10-24 20.6 19.0 17.6 20.2 18.6 17.3 98 97 92 1008 1003 14 3 14 1.17
2013-10-25 27.1 19.8 16.1 21.6 17.1 15.8 98 86 55 1009 1006 9 2 9 0.00
2013-10-26 26.6 19.6 16.2 22.7 17.4 15.9 98 89 57 1010 1008 10 2 10 0.00
2013-10-27 24.5 19.7 15.6 20.1 17.7 15.3 98 90 63 1010 1006 11 2 11 0.00
2013-10-28 27.4 20.2 17.8 21.8 17.8 14.4 98 88 46 1008 1003 13 3 13 0.00
2013-10-29 25.9 19.8 17.1 19.5 17.9 16.2 98 90 61 1003 1000 13 3 13 0.00
2013-10-30 27.9 19.1 16.1 18.6 15.9 12.2 98 84 43 1005 1000 11 2 11 0.00
2013-10-31 26.2 19.2 16.5 13.4 11.4 9.2 78 62 36 1008 1004 17 4 17 0.00
2013-11-1 25.7 17.8 13.3 15.5 12.1 10.0 98 72 39 1007 1004 7 2 7 0.00
2013-11-2 24.5 17.8 15.0 19.4 15.4 12.2 98 87 51 1006 1001 10 2 10 0.00
2013-11-3 25.1 18.5 15.3 19.1 14.1 7.2 98 77 48 1002 996 17 3 17 0.00
2013-11-4 23.0 16.4 11.8 15.7 12.8 8.7 98 82 44 997 982 20 2 20 4.14
2013-11-5 22.4 14.9 11.0 19.2 12.6 9.3 98 87 51 986 980 12 1 12 0.53
2013-11-6 24.5 15.7 10.3 20.1 12.6 9.7 98 84 48 998 986 13 1 13 0.00
2013-11-7 26.6 16.9 11.7 20.6 13.2 11.1 98 83 39 1004 998 8 2 8 0.00
2013-11-8 19.8 16.8 12.8 18.1 15.9 12.5 98 94 84 1004 1001 10 2 10 0.00
2013-11-9 24.9 18.5 13.7 18.3 12.7 3.1 98 71 35 1002 998 15 3 15 0.00
2013-11-10 16.6 14.2 10.6 14.1 8.2 0.1 98 69 37 1000 983 40 5 40 1.47
2013-11-11 15.8 11.8 10.0 8.9 2.4 -1.1 87 54 36 996 983 39 11 39 0.10
2013-11-12 19.4 14.5 11.7 6.8 5.3 3.9 65 54 39 1000 994 32 8 32 0.00
2013-11-13 22.8 17.3 14.3 8.6 6.4 5.4 63 50 35 1001 998 26 7 26 0.00
2013-11-14 23.7 16.3 13.5 13.0 8.6 5.4 95 62 34 1001 994 19 4 19 0.00
2013-11-15 17.4 14.4 11.6 13.7 9.4 5.8 98 73 50 1002 992 20 3 20 0.10
2013-11-16 19.4 15.3 12.5 8.4 6.4 4.1 63 56 41 1005 1000 30 9 30 0.00
2013-11-17 18.3 14.0 12.3 12.6 8.1 4.0 91 69 53 1005 1002 19 4 19 0.20
2013-11-18 18.2 15.1 11.4 12.1 8.9 4.8 91 68 48 1002 990 20 5 20 0.51
2013-11-19 20.9 13.4 9.8 10.7 9.0 6.8 98 77 45 993 984 17 3 17 0.74
2013-11-20 17.9 10.6 7.9 13.4 8.1 4.7 98 85 62 989 983 11 2 11 0.84
2013-11-21 12.1 8.1 6.1 11.2 7.4 5.8 98 96 85 989 979 24 3 24 2.64
2013-11-22 13.5 7.8 4.5 7.5 5.8 4.2 98 88 60 982 980 17 3 17 0.23
2013-11-23 17.2 8.6 5.9 9.7 5.4 1.1 98 83 39 984 978 16 3 16 0.94
2013-11-24 18.4 9.9 6.0 8.4 3.9 0.1 89 69 34 992 983 19 4 19 0.00
2013-11-25 13.8 6.9 3.3 10.3 -0.9 -10.8 94 61 31 1001 991 23 4 23 0.00
2013-11-26 11.2 4.1 -1.8 -6.4 -8.9 -10.7 64 40 26 1004 999 21 4 21 0.00
2013-11-27 10.1 3.7 0.9 -4.2 -7.9 -10.9 59 43 32 1009 1002 17 3 17 0.00
2013-11-28 13.6 5.7 -0.2 -1.4 -4.8 -7.6 65 48 29 1010 1007 20 4 20 0.00
2013-11-29 17.0 6.3 1.0 2.4 -1.3 -7.3 89 62 33 1008 1001 11 2 11 0.00
2013-11-30 14.6 7.8 0.6 4.7 0.7 -3.5 96 64 42 1001 994 21 5 21 0.00
2013-12-1 14.6 10.1 7.5 -0.1 -2.0 -3.6 57 43 35 998 992 32 8 32 0.00
2013-12-2 13.4 11.5 9.8 1.9 0.1 -2.4 51 46 40 1008 994 54 13 54 0.00
2013-12-3 18.2 10.6 3.3 -2.3 -5.3 -10.1 42 33 21 1008 1006 26 6 26 0.00
2013-12-4 19.0 6.9 0.0 1.5 -4.4 -10.3 89 49 24 1008 1006 9 2 9 0.00
2013-12-5 18.2 7.2 0.7 12.4 3.1 -0.3 98 79 37 1006 1002 9 2 9 0.00
2013-12-6 15.9 9.8 5.3 7.4 5.1 1.9 91 73 48 1003 997 9 3 9 0.00
2013-12-7 20.2 8.8 2.8 14.8 4.7 0.8 98 80 31 1009 1000 8 2 8 0.00
2013-12-8 17.0 9.1 4.9 9.2 4.8 2.1 91 76 47 1014 1008 11 3 11 0.00
2013-12-9 17.6 8.6 4.1 12.3 6.0 3.4 98 86 49 1015 1012 7 2 7 0.00
2013-12-10 19.2 8.3 3.0 14.9 5.2 2.6 98 84 45 1018 1014 8 2 8 0.00
2013-12-11 19.5 8.4 2.4 13.1 4.3 2.1 98 81 34 1018 1015 7 2 7 0.00
2013-12-12 14.1 8.4 3.3 12.4 7.5 3.0 98 94 78 1017 1013 9 1 9 0.00
2013-12-13 18.5 8.3 3.0 14.2 6.1 2.7 98 88 46 1013 1008 11 2 11 0.00
2013-12-14 14.4 9.3 4.8 11.6 7.7 4.5 98 90 73 1013 1009 9 3 9 0.00
2013-12-15 19.5 10.6 2.7 11.5 4.5 -2.0 96 71 26 1018 1012 9 2 9 0.00
2013-12-16 21.1 7.7 1.0 3.3 -1.5 -4.9 79 57 23 1018 1016 7 2 7 0.00
2013-12-17 20.1 7.1 0.8 2.2 -1.7 -5.6 89 58 24 1017 1012 6 2 6 0.00
2013-12-18 16.1 6.3 1.3 10.2 3.9 -0.2 98 86 53 1014 1008 7 2 7 0.00
2013-12-19 12.7 8.7 3.5 10.0 6.3 3.2 98 85 72 1009 1002 15 4 15 0.00
2013-12-20 16.2 11.9 9.7 12.6 9.4 6.1 98 85 66 1017 1002 15 4 15 0.00
2013-12-21 20.2 11.8 6.5 13.2 9.4 6.2 98 87 48 1019 1016 10 2 10 0.00
2013-12-22 15.8 10.6 6.4 13.6 9.7 6.1 98 95 79 1019 1014 9 2 9 0.00
2013-12-23 17.1 9.8 5.6 16.1 8.9 5.3 98 95 76 1014 1009 9 2 9 0.00
2013-12-24 16.1 9.4 4.7 11.7 8.1 4.3 98 92 61 1010 1001 11 3 11 0.00
2013-12-25 14.9 13.1 11.5 12.7 11.7 10.3 98 91 76 1001 983 24 6 24 0.63
2013-12-26 13.9 11.2 5.1 13.1 8.3 3.3 98 83 58 983 973 21 5 21 1.37
2013-12-27 18.2 8.5 1.9 11.6 4.3 1.5 98 78 37 998 982 11 2 11 0.00
2013-12-28 17.0 9.1 3.0 11.4 6.2 2.6 98 84 48 1001 997 13 3 13 0.00
2013-12-29 13.4 10.7 5.4 12.1 9.6 4.8 98 93 81 1005 998 10 2 10 1.17
2013-12-30 15.6 8.6 4.0 8.8 4.2 1.4 98 76 43 1007 1004 17 3 17 0.00
2013-12-31 12.1 6.9 2.8 5.6 2.5 0.1 93 75 53 1006 1002 6 2 6 0.00
2014-1-1 16.7 6.2 0.3 10.2 2.1 -0.6 98 79 35 1005 1002 11 2 11 0.00